createdAt,value
2022-07-26T00:00:13.939Z,83.80
2022-07-26T00:02:47.358Z,84.00
2022-07-26T00:05:18.770Z,84.00
2022-07-26T00:07:46.027Z,84.60
2022-07-26T00:10:13.056Z,84.80
2022-07-26T00:12:39.954Z,84.50
2022-07-26T00:15:08.077Z,84.50
2022-07-26T00:17:35.631Z,84.80
2022-07-26T00:20:02.462Z,84.90
2022-07-26T00:22:35.991Z,84.80
2022-07-26T00:25:04.237Z,84.90
2022-07-26T00:27:30.984Z,85.00
2022-07-26T00:29:58.128Z,84.90
2022-07-26T00:32:25.546Z,85.00
2022-07-26T00:34:53.802Z,85.10
2022-07-26T00:37:21.246Z,84.90
2022-07-26T00:39:48.763Z,85.20
2022-07-26T00:42:15.581Z,85.30
2022-07-26T00:44:44.382Z,85.50
2022-07-26T00:47:12.202Z,85.40
2022-07-26T00:49:38.906Z,85.50
2022-07-26T00:52:05.863Z,85.90
2022-07-26T00:54:32.805Z,85.50
2022-07-26T00:56:59.611Z,85.80
2022-07-26T00:59:26.732Z,86.30
2022-07-26T01:01:53.744Z,86.40
2022-07-26T01:04:20.747Z,86.50
2022-07-26T01:06:48.779Z,86.30
2022-07-26T01:09:16.649Z,86.50
2022-07-26T01:11:43.501Z,86.60
2022-07-26T01:14:11.086Z,86.70
2022-07-26T01:16:39.462Z,86.60
2022-07-26T01:19:06.231Z,86.10
2022-07-26T01:21:33.726Z,86.10
2022-07-26T01:24:00.647Z,86.10
2022-07-26T01:26:28.395Z,86.30
2022-07-26T01:28:55.460Z,86.20
2022-07-26T01:31:22.473Z,86.30
2022-07-26T01:33:49.677Z,86.50
2022-07-26T01:36:16.697Z,86.60
2022-07-26T01:38:43.935Z,86.60
2022-07-26T01:41:10.636Z,86.80
2022-07-26T01:43:37.729Z,86.90
2022-07-26T01:46:05.804Z,86.80
2022-07-26T01:48:32.719Z,86.90
2022-07-26T01:51:00.264Z,87.10
2022-07-26T01:53:27.353Z,87.00
2022-07-26T01:55:54.175Z,87.30
2022-07-26T01:58:22.073Z,87.20
2022-07-26T02:00:49.140Z,87.30
2022-07-26T02:03:16.077Z,87.40
2022-07-26T02:05:43.156Z,87.30
2022-07-26T02:08:10.410Z,87.20
2022-07-26T02:10:56.814Z,87.40
2022-07-26T02:13:24.984Z,87.60
2022-07-26T02:15:51.853Z,87.30
2022-07-26T02:18:18.807Z,87.60
2022-07-26T02:20:45.612Z,87.70
2022-07-26T02:23:12.917Z,87.50
2022-07-26T02:25:39.803Z,87.50
2022-07-26T02:28:06.661Z,87.40
2022-07-26T02:30:33.422Z,87.40
2022-07-26T02:33:00.869Z,87.30
2022-07-26T02:35:27.747Z,87.30
2022-07-26T02:37:54.396Z,87.40
2022-07-26T02:40:21.500Z,87.40
2022-07-26T02:42:48.389Z,87.80
2022-07-26T02:45:15.025Z,87.90
2022-07-26T02:47:46.337Z,87.70
2022-07-26T02:50:13.357Z,87.80
2022-07-26T02:52:40.046Z,87.80
2022-07-26T02:55:07.141Z,87.90
2022-07-26T02:57:40.339Z,88.00
2022-07-26T03:00:13.490Z,87.80
2022-07-26T03:02:40.492Z,88.20
2022-07-26T03:05:07.302Z,88.00
2022-07-26T03:07:34.482Z,88.30
2022-07-26T03:10:01.380Z,88.30
2022-07-26T03:12:28.025Z,87.90
2022-07-26T03:14:55.001Z,87.90
2022-07-26T03:17:21.665Z,88.00
2022-07-26T03:19:48.426Z,88.00
2022-07-26T03:22:15.161Z,88.20
2022-07-26T03:24:41.891Z,88.20
2022-07-26T03:27:08.534Z,88.20
2022-07-26T03:29:35.497Z,88.10
2022-07-26T03:32:02.140Z,88.20
2022-07-26T03:34:28.816Z,88.20
2022-07-26T03:36:55.514Z,88.50
2022-07-26T03:39:22.452Z,88.60
2022-07-26T03:41:49.168Z,88.50
2022-07-26T03:44:16.334Z,88.60
2022-07-26T03:46:43.184Z,88.50
2022-07-26T03:49:16.149Z,88.60
2022-07-26T03:51:43.849Z,88.10
2022-07-26T03:54:11.108Z,88.20
2022-07-26T03:56:39.280Z,88.10
2022-07-26T03:59:08.529Z,88.40
2022-07-26T04:01:36.285Z,88.40
2022-07-26T04:04:03.243Z,88.40
2022-07-26T04:06:30.313Z,88.30
2022-07-26T04:08:57.025Z,88.60
2022-07-26T04:11:26.734Z,88.50
2022-07-26T04:13:55.667Z,88.80
2022-07-26T04:16:22.745Z,88.70
2022-07-26T04:18:49.836Z,88.50
2022-07-26T04:21:17.496Z,88.70
2022-07-26T04:23:49.221Z,88.70
2022-07-26T04:26:18.201Z,88.70
2022-07-26T04:28:45.114Z,88.70
2022-07-26T04:31:11.885Z,88.50
2022-07-26T04:33:39.009Z,88.60
2022-07-26T04:36:05.966Z,88.20
2022-07-26T04:38:32.604Z,88.00
2022-07-26T04:40:59.712Z,87.90
2022-07-26T04:43:26.701Z,87.70
2022-07-26T04:45:56.484Z,87.90
2022-07-26T04:48:23.646Z,87.70
2022-07-26T04:50:50.500Z,87.70
2022-07-26T04:53:17.178Z,87.80
2022-07-26T04:55:43.938Z,87.80
2022-07-26T04:58:11.200Z,88.10
2022-07-26T05:01:02.908Z,87.90
2022-07-26T05:03:25.541Z,87.90
2022-07-26T05:05:52.614Z,87.70
2022-07-26T05:08:19.356Z,87.30
2022-07-26T05:10:47.796Z,87.50
2022-07-26T05:13:17.375Z,87.50
2022-07-26T05:15:57.592Z,87.40
2022-07-26T05:18:24.593Z,87.20
2022-07-26T05:20:51.459Z,87.00
2022-07-26T05:23:20.113Z,87.00
2022-07-26T05:25:47.581Z,87.20
2022-07-26T05:28:14.299Z,86.70
2022-07-26T05:30:41.484Z,86.70
2022-07-26T05:33:08.481Z,86.70
2022-07-26T05:35:35.168Z,86.40
2022-07-26T05:38:02.493Z,86.40
2022-07-26T05:40:29.746Z,85.80
2022-07-26T05:42:57.797Z,85.20
2022-07-26T05:45:24.888Z,85.20
2022-07-26T05:47:52.685Z,85.50
2022-07-26T05:50:19.816Z,84.90
2022-07-26T05:52:46.949Z,84.60
2022-07-26T05:55:14.198Z,84.60
2022-07-26T05:57:41.984Z,84.80
2022-07-26T06:00:09.809Z,84.40
2022-07-26T06:02:40.325Z,84.10
2022-07-26T06:05:07.879Z,83.80
2022-07-26T06:07:35.267Z,83.10
2022-07-26T06:10:04.577Z,83.20
2022-07-26T06:12:31.249Z,83.40
2022-07-26T06:14:58.114Z,83.10
2022-07-26T06:17:24.908Z,83.20
2022-07-26T06:19:52.673Z,83.50
2022-07-26T06:22:19.650Z,83.70
2022-07-26T06:24:46.351Z,84.00
2022-07-26T06:27:13.187Z,83.70
2022-07-26T06:29:40.795Z,83.60
2022-07-26T06:32:07.718Z,84.20
2022-07-26T06:34:34.492Z,84.20
2022-07-26T06:37:05.240Z,83.50
2022-07-26T06:39:32.493Z,83.40
2022-07-26T06:41:59.191Z,83.90
2022-07-26T06:44:29.211Z,83.70
2022-07-26T06:46:56.151Z,83.20
2022-07-26T06:49:23.235Z,81.30
2022-07-26T06:51:50.429Z,82.50
2022-07-26T06:54:17.589Z,82.80
2022-07-26T06:56:44.570Z,83.00
2022-07-26T06:59:11.446Z,82.30
2022-07-26T07:01:58.500Z,81.50
2022-07-26T07:04:24.976Z,82.40
2022-07-26T07:06:51.966Z,83.40
2022-07-26T07:09:19.416Z,80.80
2022-07-26T07:11:48.898Z,79.30
2022-07-26T07:14:18.696Z,80.80
2022-07-26T07:16:45.433Z,78.80
2022-07-26T07:19:12.378Z,80.30
2022-07-26T07:21:39.760Z,80.30
2022-07-26T07:24:07.261Z,79.70
2022-07-26T07:26:34.384Z,79.60
2022-07-26T07:29:04.238Z,76.90
2022-07-26T07:31:48.654Z,77.30
2022-07-26T07:34:19.513Z,77.60
2022-07-26T07:36:46.685Z,76.90
2022-07-26T07:39:17.636Z,75.60
2022-07-26T07:41:45.551Z,77.10
2022-07-26T07:44:12.405Z,77.10
2022-07-26T07:46:39.200Z,76.40
2022-07-26T07:49:07.197Z,77.20
2022-07-26T07:51:34.397Z,77.20
2022-07-26T07:54:05.679Z,76.70
2022-07-26T07:56:33.653Z,76.30
2022-07-26T07:59:00.832Z,75.60
2022-07-26T08:01:40.693Z,77.10
2022-07-26T08:04:08.869Z,77.10
2022-07-26T08:06:36.183Z,78.10
2022-07-26T08:09:03.854Z,77.20
2022-07-26T08:11:33.979Z,77.30
2022-07-26T08:14:01.381Z,77.30
2022-07-26T08:16:28.090Z,77.20
2022-07-26T08:18:57.963Z,77.80
2022-07-26T08:21:28.884Z,77.70
2022-07-26T08:23:56.913Z,76.80
2022-07-26T08:26:23.971Z,77.10
2022-07-26T08:28:59.464Z,77.00
2022-07-26T08:31:29.298Z,76.60
2022-07-26T08:33:56.327Z,77.20
2022-07-26T08:36:23.056Z,76.60
2022-07-26T08:38:49.967Z,76.00
2022-07-26T08:41:18.637Z,74.90
2022-07-26T08:43:52.978Z,74.10
2022-07-26T08:46:25.961Z,74.30
2022-07-26T08:48:56.165Z,74.90
2022-07-26T08:51:24.735Z,75.70
2022-07-26T08:53:54.083Z,76.00
2022-07-26T08:56:20.897Z,77.00
2022-07-26T08:58:48.010Z,76.50
2022-07-26T09:01:15.301Z,77.40
2022-07-26T09:03:45.641Z,77.60
2022-07-26T09:06:12.922Z,78.60
2022-07-26T09:08:39.843Z,74.70
2022-07-26T09:11:24.935Z,74.40
2022-07-26T09:13:51.879Z,74.70
2022-07-26T09:16:19.155Z,75.10
2022-07-26T09:18:46.461Z,75.50
2022-07-26T09:21:26.263Z,74.40
2022-07-26T09:23:53.275Z,74.50
2022-07-26T09:26:20.604Z,74.80
2022-07-26T09:29:01.362Z,74.90
2022-07-26T09:31:28.109Z,75.80
2022-07-26T09:34:00.065Z,74.00
2022-07-26T09:36:28.056Z,72.50
2022-07-26T09:39:04.934Z,71.30
2022-07-26T09:41:34.591Z,73.20
2022-07-26T09:44:05.543Z,71.40
2022-07-26T09:46:34.415Z,72.00
2022-07-26T09:49:17.661Z,69.60
2022-07-26T09:51:46.254Z,70.80
2022-07-26T09:54:18.412Z,71.60
2022-07-26T09:56:52.387Z,71.90
2022-07-26T09:59:20.826Z,70.40
2022-07-26T10:01:48.167Z,70.70
2022-07-26T10:04:15.245Z,68.70
2022-07-26T10:06:42.781Z,66.70
2022-07-26T10:09:11.905Z,68.70
2022-07-26T10:11:41.288Z,69.60
2022-07-26T10:14:27.141Z,69.30
2022-07-26T10:16:54.049Z,66.10
2022-07-26T10:19:41.640Z,67.80
2022-07-26T10:22:27.849Z,65.00
2022-07-26T10:24:58.238Z,65.80
2022-07-26T10:27:42.994Z,67.10
2022-07-26T10:30:22.822Z,67.00
2022-07-26T10:33:10.117Z,65.90
2022-07-26T10:35:39.007Z,64.90
2022-07-26T10:38:08.086Z,64.20
2022-07-26T10:40:35.726Z,62.70
2022-07-26T10:43:30.530Z,63.50
2022-07-26T10:46:14.757Z,63.20
2022-07-26T10:49:05.162Z,60.20
2022-07-26T10:51:37.078Z,61.60
2022-07-26T10:54:08.610Z,61.50
2022-07-26T10:56:38.612Z,59.00
2022-07-26T10:59:06.315Z,58.30
2022-07-26T11:01:37.208Z,57.50
2022-07-26T11:04:04.288Z,57.40
2022-07-26T11:06:33.963Z,58.50
2022-07-26T11:09:09.403Z,57.50
2022-07-26T11:11:36.385Z,58.80
2022-07-26T11:14:08.423Z,57.90
2022-07-26T11:16:39.133Z,56.50
2022-07-26T11:19:15.675Z,57.70
2022-07-26T11:21:43.565Z,57.20
2022-07-26T11:24:10.686Z,56.20
2022-07-26T11:26:45.201Z,53.60
2022-07-26T11:29:16.979Z,55.90
2022-07-26T11:31:50.690Z,56.70
2022-07-26T11:34:28.517Z,56.60
2022-07-26T11:36:58.431Z,55.70
2022-07-26T11:39:34.084Z,54.60
2022-07-26T11:42:05.784Z,55.00
2022-07-26T11:44:36.753Z,54.50
2022-07-26T11:47:13.469Z,55.30
2022-07-26T11:50:00.500Z,56.90
2022-07-26T11:52:40.148Z,57.20
2022-07-26T11:55:08.253Z,58.10
2022-07-26T11:57:37.484Z,57.30
2022-07-26T12:00:06.943Z,57.00
2022-07-26T12:02:40.645Z,55.90
2022-07-26T12:05:23.790Z,54.60
2022-07-26T12:07:55.350Z,55.40
2022-07-26T12:10:25.790Z,55.80
2022-07-26T12:13:11.075Z,55.40
2022-07-26T12:15:52.505Z,55.00
2022-07-26T12:18:27.759Z,54.40
2022-07-26T12:21:09.482Z,54.50
2022-07-26T12:23:43.674Z,53.80
2022-07-26T12:26:31.706Z,54.40
2022-07-26T12:29:21.609Z,53.00
2022-07-26T12:32:10.284Z,52.30
2022-07-26T12:34:40.243Z,53.20
2022-07-26T12:37:13.148Z,53.30
2022-07-26T12:39:42.747Z,53.30
2022-07-26T12:42:22.654Z,54.30
2022-07-26T12:44:50.673Z,53.10
2022-07-26T12:47:19.042Z,52.50
2022-07-26T12:49:49.318Z,53.00
2022-07-26T12:52:23.937Z,52.70
2022-07-26T12:54:51.835Z,53.70
2022-07-26T12:57:22.039Z,54.30
2022-07-26T12:59:52.450Z,54.90
2022-07-26T13:02:22.204Z,55.00
2022-07-26T13:04:54.371Z,53.70
2022-07-26T13:07:24.615Z,53.60
2022-07-26T13:10:14.283Z,53.00
2022-07-26T13:12:43.232Z,53.80
2022-07-26T13:15:10.110Z,53.60
2022-07-26T13:17:36.869Z,53.30
2022-07-26T13:20:04.620Z,52.50
2022-07-26T13:22:33.424Z,52.50
2022-07-26T13:25:00.752Z,51.40
2022-07-26T13:27:37.391Z,50.10
2022-07-26T13:30:10.614Z,51.20
2022-07-26T13:32:37.466Z,50.60
2022-07-26T13:35:04.474Z,51.40
2022-07-26T13:37:31.161Z,48.90
2022-07-26T13:39:58.111Z,49.40
2022-07-26T13:42:27.326Z,49.00
2022-07-26T13:44:55.644Z,49.40
2022-07-26T13:47:22.504Z,49.60
2022-07-26T13:49:49.455Z,50.00
2022-07-26T13:52:17.009Z,52.20
2022-07-26T13:54:44.459Z,48.90
2022-07-26T13:57:11.355Z,49.60
2022-07-26T13:59:38.046Z,49.80
2022-07-26T14:02:06.912Z,48.90
2022-07-26T14:04:34.662Z,50.10
2022-07-26T14:07:01.429Z,47.50
2022-07-26T14:09:28.729Z,49.40
2022-07-26T14:11:57.231Z,50.60
2022-07-26T14:17:39.295Z,51.00
2022-07-26T14:20:07.183Z,52.80
2022-07-26T14:22:39.018Z,50.70
2022-07-26T14:27:53.616Z,52.60
2022-07-26T14:30:29.901Z,52.50
2022-07-26T14:32:57.157Z,52.60
2022-07-26T14:35:25.330Z,53.90
2022-07-26T14:37:52.419Z,51.30
2022-07-26T14:40:21.866Z,52.40
2022-07-26T14:42:49.773Z,51.90
2022-07-26T14:45:17.494Z,51.10
2022-07-26T14:47:44.573Z,53.50
2022-07-26T14:50:13.115Z,52.90
2022-07-26T14:52:40.785Z,53.30
2022-07-26T14:55:09.870Z,53.70
2022-07-26T14:57:39.427Z,53.90
2022-07-26T15:00:08.284Z,54.20
2022-07-26T15:02:35.763Z,55.40
2022-07-26T15:05:02.690Z,55.80
2022-07-26T15:07:29.601Z,55.00
2022-07-26T15:09:56.751Z,54.30
2022-07-26T15:12:29.320Z,56.10
2022-07-26T15:15:11.449Z,54.90
2022-07-26T15:17:43.874Z,56.10
2022-07-26T15:20:20.620Z,55.50
2022-07-26T15:28:57.998Z,56.20
2022-07-26T15:31:36.973Z,57.20
2022-07-26T15:34:07.668Z,56.70
2022-07-26T15:36:35.311Z,57.20
2022-07-26T15:39:16.252Z,57.00
2022-07-26T15:41:46.945Z,57.10
2022-07-26T15:44:25.565Z,56.40
2022-07-26T15:46:54.550Z,55.90
2022-07-26T15:49:22.112Z,57.30
2022-07-26T15:51:49.891Z,56.80
2022-07-26T15:54:17.449Z,57.10
2022-07-26T15:56:44.900Z,57.10
2022-07-26T15:59:12.714Z,56.80
2022-07-26T16:01:40.136Z,56.90
2022-07-26T16:04:07.211Z,57.20
2022-07-26T16:06:35.036Z,57.20
2022-07-26T16:09:24.060Z,55.80
2022-07-26T16:11:51.434Z,56.70
2022-07-26T16:14:18.276Z,58.10
2022-07-26T16:16:45.857Z,58.30
2022-07-26T16:19:13.233Z,56.90
2022-07-26T16:21:41.034Z,57.80
2022-07-26T16:24:08.231Z,56.40
2022-07-26T16:26:35.404Z,57.00
2022-07-26T16:29:02.349Z,56.90
2022-07-26T16:31:31.973Z,56.90
2022-07-26T16:33:59.956Z,57.00
2022-07-26T16:36:26.703Z,57.20
2022-07-26T16:38:53.717Z,57.40
2022-07-26T16:41:20.485Z,58.60
2022-07-26T16:43:47.640Z,59.20
2022-07-26T16:46:14.527Z,59.00
2022-07-26T16:48:41.442Z,58.30
2022-07-26T16:51:08.490Z,58.90
2022-07-26T16:53:35.214Z,59.30
2022-07-26T16:56:01.984Z,59.40
2022-07-26T16:58:29.304Z,59.70
2022-07-26T17:00:58.393Z,59.00
2022-07-26T17:03:26.308Z,60.60
2022-07-26T17:05:53.128Z,60.40
2022-07-26T17:08:20.177Z,60.10
2022-07-26T17:10:46.977Z,60.90
2022-07-26T17:13:16.062Z,61.50
2022-07-26T17:15:43.115Z,61.70
2022-07-26T17:18:09.926Z,62.50
2022-07-26T17:20:37.082Z,62.30
2022-07-26T17:23:03.949Z,62.60
2022-07-26T17:25:31.892Z,61.90
2022-07-26T17:27:58.704Z,61.90
2022-07-26T17:30:25.794Z,62.30
2022-07-26T17:32:54.613Z,62.80
2022-07-26T17:35:21.545Z,62.80
2022-07-26T17:37:48.540Z,62.50
2022-07-26T17:40:16.454Z,62.80
2022-07-26T17:42:43.696Z,62.30
2022-07-26T17:45:13.677Z,62.40
2022-07-26T17:47:41.476Z,62.00
2022-07-26T17:52:57.257Z,62.40
2022-07-26T17:55:36.153Z,63.20
2022-07-26T17:58:12.463Z,63.70
2022-07-26T18:00:41.653Z,63.80
2022-07-26T18:03:08.369Z,63.90
2022-07-26T18:05:38.324Z,64.20
2022-07-26T18:08:12.692Z,64.50
2022-07-26T18:10:50.489Z,64.80
2022-07-26T18:13:18.012Z,65.10
2022-07-26T18:15:45.035Z,65.50
2022-07-26T18:18:12.207Z,65.70
2022-07-26T18:20:44.545Z,66.00
2022-07-26T18:23:12.195Z,66.70
2022-07-26T18:25:44.066Z,66.70
2022-07-26T18:28:11.418Z,67.00
2022-07-26T18:30:40.890Z,66.60
2022-07-26T18:33:12.272Z,67.50
2022-07-26T18:35:39.325Z,67.20
2022-07-26T18:38:09.336Z,67.20
2022-07-26T18:40:38.077Z,67.70
2022-07-26T18:43:05.105Z,68.10
2022-07-26T18:45:32.049Z,68.00
2022-07-26T18:47:59.969Z,68.60
2022-07-26T18:50:26.752Z,68.50
2022-07-26T18:53:02.211Z,69.00
2022-07-26T18:55:29.394Z,69.30
2022-07-26T18:57:56.281Z,69.80
2022-07-26T19:00:27.185Z,70.10
2022-07-26T19:02:54.869Z,71.50
2022-07-26T19:05:23.190Z,71.40
2022-07-26T19:07:51.682Z,71.90
2022-07-26T19:10:20.339Z,72.00
2022-07-26T19:12:48.491Z,71.10
2022-07-26T19:15:16.215Z,71.30
2022-07-26T19:17:43.187Z,71.60
2022-07-26T19:20:10.383Z,71.70
2022-07-26T19:22:37.382Z,71.50
2022-07-26T19:25:05.065Z,72.40
2022-07-26T19:27:32.496Z,72.30
2022-07-26T19:29:59.237Z,72.60
2022-07-26T19:32:29.145Z,72.90
2022-07-26T19:35:00.647Z,73.60
2022-07-26T19:37:36.786Z,73.40
2022-07-26T19:40:04.155Z,73.80
2022-07-26T19:42:31.748Z,73.70
2022-07-26T19:44:59.597Z,73.60
2022-07-26T19:47:28.977Z,74.20
2022-07-26T19:50:03.321Z,73.80
2022-07-26T19:52:30.297Z,74.00
2022-07-26T19:54:58.060Z,74.30
2022-07-26T19:57:25.227Z,74.20
2022-07-26T19:59:52.341Z,74.70
2022-07-26T20:02:22.853Z,74.50
2022-07-26T20:04:49.851Z,74.80
2022-07-26T20:07:19.403Z,75.40
2022-07-26T20:09:47.465Z,76.10
2022-07-26T20:12:16.625Z,76.10
2022-07-26T20:14:43.857Z,76.90
2022-07-26T20:17:11.962Z,77.20
2022-07-26T20:19:39.984Z,76.10
2022-07-26T20:22:08.484Z,77.30
2022-07-26T20:24:35.542Z,77.10
2022-07-26T20:27:02.409Z,77.60
2022-07-26T20:29:30.381Z,77.90
2022-07-26T20:31:57.548Z,78.30
2022-07-26T20:34:24.519Z,78.30
2022-07-26T20:36:54.008Z,77.90
2022-07-26T20:39:21.399Z,78.90
2022-07-26T20:41:48.466Z,78.80
2022-07-26T20:44:15.590Z,78.70
2022-07-26T20:46:43.328Z,78.20
2022-07-26T20:49:11.028Z,79.20
2022-07-26T20:51:40.397Z,79.20
2022-07-26T20:54:10.586Z,80.00
2022-07-26T20:56:38.293Z,79.60
2022-07-26T20:59:05.292Z,79.10
2022-07-26T21:01:32.995Z,80.50
2022-07-26T21:03:59.967Z,80.60
2022-07-26T21:06:29.202Z,80.40
2022-07-26T21:08:57.794Z,79.90
2022-07-26T21:11:24.790Z,79.60
2022-07-26T21:13:53.035Z,80.20
2022-07-26T21:16:20.010Z,80.20
2022-07-26T21:18:53.121Z,80.50
2022-07-26T21:21:20.683Z,80.90
2022-07-26T21:23:49.849Z,81.00
2022-07-26T21:26:16.521Z,81.00
2022-07-26T21:28:43.814Z,80.60
2022-07-26T21:31:10.800Z,80.10
2022-07-26T21:33:37.498Z,80.00
2022-07-26T21:36:06.818Z,80.50
2022-07-26T21:38:33.811Z,80.80
2022-07-26T21:41:01.589Z,81.60
2022-07-26T21:43:28.959Z,81.70
2022-07-26T21:45:55.725Z,82.50
2022-07-26T21:48:23.650Z,82.60
2022-07-26T21:50:50.581Z,82.70
2022-07-26T21:53:17.471Z,82.90
2022-07-26T21:55:44.228Z,82.90
2022-07-26T21:58:11.375Z,82.30
2022-07-26T22:00:39.458Z,83.00
2022-07-26T22:03:06.877Z,83.70
2022-07-26T22:05:40.444Z,83.80
2022-07-26T22:08:07.878Z,83.80
2022-07-26T22:10:35.324Z,84.40
2022-07-26T22:13:10.037Z,84.40
2022-07-26T22:15:36.762Z,83.30
2022-07-26T22:18:03.561Z,84.20
2022-07-26T22:20:31.718Z,84.50
2022-07-26T22:23:02.402Z,84.30
2022-07-26T22:25:30.568Z,84.20
2022-07-26T22:27:59.436Z,84.50
2022-07-26T22:30:28.690Z,84.60
2022-07-26T22:32:56.455Z,84.00
2022-07-26T22:35:24.154Z,83.70
2022-07-26T22:37:51.177Z,83.00
2022-07-26T22:40:18.967Z,83.30
2022-07-26T22:42:47.022Z,83.10
2022-07-26T22:45:14.103Z,83.60
2022-07-26T22:47:41.610Z,84.30
2022-07-26T22:50:23.670Z,83.90
2022-07-26T22:52:52.760Z,84.00
2022-07-26T22:55:19.733Z,83.90
2022-07-26T22:57:48.333Z,83.90
2022-07-26T23:00:17.043Z,83.70
2022-07-26T23:02:43.984Z,83.30
2022-07-26T23:05:11.506Z,83.80
2022-07-26T23:07:38.280Z,83.50
2022-07-26T23:10:07.735Z,84.00
2022-07-26T23:12:35.856Z,84.20
2022-07-26T23:15:03.682Z,83.90
2022-07-26T23:17:30.648Z,84.30
2022-07-26T23:19:57.794Z,84.00
2022-07-26T23:22:24.568Z,84.00
2022-07-26T23:24:51.303Z,84.40
2022-07-26T23:27:20.299Z,84.40
2022-07-26T23:29:48.285Z,85.10
2022-07-26T23:32:15.891Z,84.90
2022-07-26T23:34:42.817Z,84.70
2022-07-26T23:37:09.700Z,85.20
2022-07-26T23:39:36.411Z,85.10
2022-07-26T23:42:03.661Z,85.50
2022-07-26T23:44:31.066Z,85.80
2022-07-26T23:46:58.267Z,86.00
2022-07-26T23:49:25.893Z,86.50
2022-07-26T23:51:53.662Z,86.60
2022-07-26T23:54:20.545Z,86.40
2022-07-26T23:56:47.739Z,86.10
2022-07-26T23:59:16.100Z,87.30
